Time;durP1;ratioP1;P1;durP2;ratioP2;P2;SDS_P1;SDS_P2;PMS_P1;PMS_P2;Temp;Humidity;BMP_temperature;BMP_pressure;BME280_temperature;BME280_humidity;BME280_pressure;Samples;Min_cycle;Max_cycle;Signal;HPM_P1;HPM_P2
2023/08/15 00:00:24;;;;;;;2.78;1.77;;;22.30;99.90;;;;;;4995179;28;20044;-68
2023/08/15 00:02:50;;;;;;;3.75;1.58;;;22.20;99.90;;;;;;4986127;28;20039;-68
2023/08/15 00:05:16;;;;;;;2.08;1.77;;;22.20;99.90;;;;;;4993190;28;20092;-68
2023/08/15 00:08:00;;;;;;;2.95;1.85;;;22.20;99.90;;;;;;4998797;28;20495;-68
2023/08/15 00:10:25;;;;;;;2.30;1.45;;;22.10;99.90;;;;;;4976201;28;20033;-69
2023/08/15 00:12:51;;;;;;;5.88;1.88;;;22.10;99.90;;;;;;5000107;28;20065;-69
2023/08/15 00:15:18;;;;;;;7.78;1.60;;;22.10;99.90;;;;;;4993600;28;20088;-68
2023/08/15 00:17:44;;;;;;;3.50;1.58;;;22.10;99.90;;;;;;4995627;28;20034;-69
2023/08/15 00:20:10;;;;;;;1.98;1.50;;;22.10;99.90;;;;;;4974392;28;20048;-67
2023/08/15 00:22:36;;;;;;;2.60;1.85;;;22.10;99.90;;;;;;4992553;28;20100;-69
2023/08/15 00:25:02;;;;;;;2.97;1.65;;;22.10;99.90;;;;;;4984597;28;20034;-69
2023/08/15 00:27:28;;;;;;;2.95;1.83;;;22.10;99.90;;;;;;4996118;28;20553;-68
2023/08/15 00:29:54;;;;;;;2.55;1.38;;;22.10;99.90;;;;;;4976889;28;20224;-69
2023/08/15 00:32:19;;;;;;;2.75;1.60;;;22.10;99.90;;;;;;4990502;28;20061;-68
2023/08/15 00:34:45;;;;;;;3.78;1.73;;;22.10;99.90;;;;;;4990046;28;20405;-68
2023/08/15 00:37:11;;;;;;;3.90;1.90;;;22.10;99.90;;;;;;4975299;28;20031;-68
2023/08/15 00:39:37;;;;;;;4.00;1.95;;;22.10;99.90;;;;;;4979415;28;20041;-68
2023/08/15 00:42:02;;;;;;;3.35;2.17;;;22.10;99.90;;;;;;4992933;28;20026;-67
2023/08/15 00:44:28;;;;;;;5.75;1.90;;;22.10;99.90;;;;;;4978223;28;20038;-68
2023/08/15 00:46:54;;;;;;;4.68;2.13;;;22.00;99.90;;;;;;4978657;28;20049;-68
2023/08/15 00:49:20;;;;;;;6.82;2.20;;;22.00;99.90;;;;;;4976478;28;20034;-68
2023/08/15 00:51:47;;;;;;;2.88;1.98;;;22.00;99.90;;;;;;4991561;28;20034;-68
2023/08/15 00:54:14;;;;;;;4.93;2.20;;;21.90;99.90;;;;;;4974423;28;20573;-68
2023/08/15 00:56:40;;;;;;;6.57;2.42;;;21.90;99.90;;;;;;4970631;28;20050;-68
2023/08/15 00:59:06;;;;;;;6.32;2.25;;;21.90;99.90;;;;;;5001487;28;20564;-69
2023/08/15 01:01:36;;;;;;;6.18;2.17;;;21.90;99.90;;;;;;4965359;28;20038;-69
2023/08/15 01:04:02;;;;;;;3.63;1.70;;;21.90;99.90;;;;;;4992192;28;20114;-69
2023/08/15 01:06:29;;;;;;;3.97;1.80;;;21.80;99.90;;;;;;4974723;28;20040;-69
2023/08/15 01:08:55;;;;;;;2.95;1.70;;;21.80;99.90;;;;;;4985063;28;20814;-70
2023/08/15 01:11:21;;;;;;;4.35;1.73;;;21.80;99.90;;;;;;4996149;28;20538;-70
2023/08/15 01:13:59;;;;;;;1.80;1.40;;;21.90;99.90;;;;;;4978110;28;20034;-69
2023/08/15 01:16:30;;;;;;;2.42;1.50;;;21.90;99.90;;;;;;4968047;28;20149;-69
2023/08/15 01:19:03;;;;;;;2.20;1.50;;;21.90;99.90;;;;;;4973629;28;20711;-69
2023/08/15 01:21:38;;;;;;;2.95;1.40;;;21.90;99.90;;;;;;4975123;28;20129;-69
2023/08/15 01:24:06;;;;;;;3.67;1.38;;;21.90;99.90;;;;;;4969295;28;20030;-69
2023/08/15 01:26:32;;;;;;;4.18;1.50;;;21.80;99.90;;;;;;4989968;28;20045;-69
2023/08/15 01:28:58;;;;;;;3.03;1.25;;;21.80;99.90;;;;;;4959232;28;20407;-69
2023/08/15 01:32:12;;;;;;;3.40;1.30;;;21.80;99.90;;;;;;4995599;28;20470;-68
2023/08/15 01:34:45;;;;;;;2.65;1.30;;;21.70;99.90;;;;;;4971306;28;20061;-69
2023/08/15 01:37:27;;;;;;;2.10;1.50;;;21.70;99.90;;;;;;4992440;28;20065;-69
2023/08/15 01:39:56;;;;;;;2.72;1.50;;;21.70;99.90;;;;;;4996164;28;20034;-69
2023/08/15 01:42:24;;;;;;;2.33;1.38;;;21.70;99.90;;;;;;4987877;28;20034;-69
2023/08/15 01:44:50;;;;;;;1.70;1.45;;;21.60;99.90;;;;;;4978723;28;20733;-69
2023/08/15 01:47:16;;;;;;;1.83;1.35;;;21.60;99.90;;;;;;4981238;28;20038;-68
2023/08/15 01:49:42;;;;;;;2.78;1.45;;;21.60;99.90;;;;;;4999564;28;20037;-69
2023/08/15 01:52:07;;;;;;;3.22;1.50;;;21.60;99.90;;;;;;4981336;28;20040;-69
2023/08/15 01:54:33;;;;;;;1.85;1.52;;;21.60;99.90;;;;;;4978801;28;20069;-69
2023/08/15 01:56:59;;;;;;;2.85;1.50;;;21.60;99.90;;;;;;4974284;28;20030;-69
2023/08/15 01:59:25;;;;;;;2.28;1.50;;;21.50;99.90;;;;;;4976892;28;20050;-69
2023/08/15 02:01:50;;;;;;;2.03;1.48;;;21.50;99.90;;;;;;4999630;28;20505;-69
2023/08/15 02:04:16;;;;;;;2.85;1.48;;;21.40;99.90;;;;;;4999054;28;20136;-69
2023/08/15 02:06:42;;;;;;;2.13;1.40;;;21.40;99.90;;;;;;4998619;28;20109;-69
2023/08/15 02:09:08;;;;;;;2.17;1.65;;;21.40;99.90;;;;;;4998271;28;20084;-69
2023/08/15 02:11:34;;;;;;;3.17;1.70;;;21.40;99.90;;;;;;4991200;28;20046;-69
2023/08/15 02:14:00;;;;;;;1.63;1.50;;;21.30;99.90;;;;;;4992006;28;20031;-69
2023/08/15 02:16:26;;;;;;;3.10;1.20;;;21.30;99.90;;;;;;4995620;28;20034;-69
2023/08/15 02:18:54;;;;;;;2.08;1.40;;;21.30;99.90;;;;;;4979676;28;20122;-69
2023/08/15 02:21:20;;;;;;;2.45;1.50;;;21.30;99.90;;;;;;4991664;28;20038;-69
2023/08/15 02:23:46;;;;;;;2.80;1.50;;;21.20;99.90;;;;;;4968838;28;20026;-68
2023/08/15 02:26:12;;;;;;;1.85;1.42;;;21.20;99.90;;;;;;4993837;28;20041;-69
2023/08/15 02:28:38;;;;;;;1.65;1.50;;;21.20;99.90;;;;;;4969856;28;20038;-68
2023/08/15 02:31:05;;;;;;;2.17;1.40;;;21.20;99.90;;;;;;5003402;28;20141;-69
2023/08/15 02:33:32;;;;;;;3.40;1.40;;;21.10;99.90;;;;;;4990868;28;20053;-68
2023/08/15 02:36:06;;;;;;;2.38;1.33;;;21.10;99.90;;;;;;4995296;28;20089;-69
2023/08/15 02:38:33;;;;;;;1.80;1.60;;;21.10;99.90;;;;;;4990428;28;20022;-69
2023/08/15 02:40:58;;;;;;;2.10;1.50;;;21.10;99.90;;;;;;4979003;28;20050;-69
2023/08/15 02:43:24;;;;;;;2.42;1.33;;;21.10;99.90;;;;;;4996612;28;20566;-69
2023/08/15 02:45:50;;;;;;;1.77;1.40;;;21.00;99.90;;;;;;4978882;28;20066;-69
2023/08/15 02:48:16;;;;;;;1.52;1.40;;;21.00;99.90;;;;;;4985573;28;20029;-69
2023/08/15 02:50:42;;;;;;;3.13;1.50;;;21.00;99.90;;;;;;4976519;28;20034;-69
2023/08/15 02:53:08;;;;;;;1.30;1.23;;;21.00;99.90;;;;;;4998121;28;20036;-69
2023/08/15 02:55:34;;;;;;;1.23;1.13;;;21.00;99.90;;;;;;4990964;28;20031;-68
2023/08/15 02:58:00;;;;;;;1.83;1.30;;;21.00;99.90;;;;;;4982494;28;20117;-69
2023/08/15 03:00:25;;;;;;;1.40;1.20;;;20.90;99.90;;;;;;4991965;28;20038;-68
2023/08/15 03:02:52;;;;;;;4.40;1.80;;;20.90;99.90;;;;;;4995690;28;20033;-69
2023/08/15 03:05:18;;;;;;;1.40;1.27;;;20.90;99.90;;;;;;4992968;28;20526;-69
2023/08/15 03:07:44;;;;;;;1.85;1.60;;;20.90;99.90;;;;;;4968553;28;20062;-69
2023/08/15 03:10:10;;;;;;;1.27;1.17;;;20.80;99.90;;;;;;4975325;28;20406;-69
2023/08/15 03:12:36;;;;;;;1.17;1.10;;;20.80;99.90;;;;;;4994306;28;20074;-69
2023/08/15 03:15:02;;;;;;;2.13;1.27;;;20.80;99.90;;;;;;4984611;28;20033;-69
2023/08/15 03:17:28;;;;;;;2.15;1.85;;;20.80;99.90;;;;;;4979283;28;20026;-69
2023/08/15 03:19:54;;;;;;;2.17;1.80;;;20.80;99.90;;;;;;4995846;28;20605;-69
2023/08/15 03:22:20;;;;;;;2.08;1.88;;;20.80;99.90;;;;;;4975078;28;20048;-69
2023/08/15 03:24:47;;;;;;;2.90;1.90;;;20.70;99.90;;;;;;4977458;28;20097;-69
2023/08/15 03:27:12;;;;;;;2.10;1.90;;;20.70;99.90;;;;;;4983147;28;20672;-69
2023/08/15 03:29:40;;;;;;;1.70;1.60;;;20.70;99.90;;;;;;4985071;28;20038;-69
2023/08/15 03:32:06;;;;;;;2.15;1.58;;;20.60;99.90;;;;;;4979328;28;20096;-69
2023/08/15 03:34:34;;;;;;;2.42;2.20;;;20.60;99.90;;;;;;4987558;28;20057;-69
2023/08/15 03:37:00;;;;;;;2.80;2.08;;;20.60;99.90;;;;;;4974527;28;20056;-69
2023/08/15 03:39:26;;;;;;;4.65;2.38;;;20.50;99.90;;;;;;4970568;28;20046;-69
2023/08/15 03:41:52;;;;;;;2.30;2.10;;;20.60;99.90;;;;;;5002076;28;20033;-69
2023/08/15 03:44:18;;;;;;;1.70;1.60;;;20.50;99.90;;;;;;4993821;28;20549;-69
2023/08/15 03:46:45;;;;;;;2.85;2.03;;;20.50;99.90;;;;;;4994542;28;20048;-69
2023/08/15 03:49:11;;;;;;;2.88;1.95;;;20.50;99.90;;;;;;4998355;28;20465;-69
2023/08/15 03:51:37;;;;;;;4.82;1.85;;;20.50;99.90;;;;;;4979587;28;20057;-69
2023/08/15 03:54:04;;;;;;;2.33;1.77;;;20.40;99.90;;;;;;4970323;28;20065;-69
2023/08/15 03:56:30;;;;;;;2.63;1.75;;;20.40;99.90;;;;;;4979563;28;20463;-69
2023/08/15 03:58:56;;;;;;;5.15;2.15;;;20.50;99.90;;;;;;4970938;28;20121;-69
2023/08/15 04:01:21;;;;;;;4.03;2.10;;;20.50;99.90;;;;;;4978818;28;20052;-68
2023/08/15 04:03:51;;;;;;;4.05;2.10;;;20.50;99.90;;;;;;4978684;28;20033;-69
2023/08/15 04:06:17;;;;;;;1.88;1.65;;;20.50;99.90;;;;;;4966512;28;20126;-69
2023/08/15 04:08:45;;;;;;;1.90;1.80;;;20.50;99.90;;;;;;4981349;28;20132;-69
2023/08/15 04:11:11;;;;;;;2.22;2.03;;;20.50;99.90;;;;;;4972151;28;20038;-68
2023/08/15 04:13:36;;;;;;;2.47;2.28;;;20.50;99.90;;;;;;4978904;28;20038;-69
2023/08/15 04:16:02;;;;;;;2.22;1.95;;;20.50;99.90;;;;;;5003004;28;20034;-69
2023/08/15 04:18:28;;;;;;;2.25;2.05;;;20.50;99.90;;;;;;4962885;28;20034;-68
2023/08/15 04:20:54;;;;;;;3.22;1.88;;;20.50;99.90;;;;;;4977252;28;20053;-69
2023/08/15 04:23:20;;;;;;;3.17;2.15;;;20.50;99.90;;;;;;4974047;28;20073;-69
2023/08/15 04:25:49;;;;;;;3.55;1.98;;;20.50;99.90;;;;;;4994349;28;20730;-69
2023/08/15 04:28:15;;;;;;;2.65;2.45;;;20.60;99.90;;;;;;4972593;28;20045;-69
2023/08/15 04:30:41;;;;;;;3.20;2.15;;;20.60;99.90;;;;;;4985878;28;20134;-69
2023/08/15 04:33:07;;;;;;;2.50;2.30;;;20.60;99.90;;;;;;4978424;28;20784;-69
2023/08/15 04:35:33;;;;;;;3.92;2.20;;;20.60;99.90;;;;;;4975180;28;20116;-69
2023/08/15 04:38:00;;;;;;;2.38;2.17;;;20.60;99.90;;;;;;4977929;28;20026;-69
2023/08/15 04:40:34;;;;;;;3.50;2.35;;;20.60;99.90;;;;;;4993158;28;20030;-69
2023/08/15 04:43:01;;;;;;;3.85;2.58;;;20.70;99.90;;;;;;4978269;28;20383;-69
2023/08/15 04:45:27;;;;;;;2.92;2.42;;;20.70;99.90;;;;;;4978637;28;20034;-69
2023/08/15 04:47:53;;;;;;;2.30;2.10;;;20.70;99.90;;;;;;4976779;28;20111;-69
2023/08/15 04:50:19;;;;;;;5.03;2.60;;;20.70;99.90;;;;;;4993492;28;20138;-69
2023/08/15 04:52:45;;;;;;;3.10;2.60;;;20.70;99.90;;;;;;4992788;28;20144;-69
2023/08/15 04:55:13;;;;;;;3.30;2.80;;;20.70;99.90;;;;;;4952266;28;20030;-69
2023/08/15 04:57:39;;;;;;;3.38;3.08;;;20.80;99.90;;;;;;4975396;28;20029;-69
2023/08/15 05:00:08;;;;;;;6.15;2.88;;;20.80;99.90;;;;;;4960880;28;20050;-69
2023/08/15 05:02:38;;;;;;;3.97;2.78;;;20.80;99.90;;;;;;4981142;28;20046;-69
2023/08/15 05:05:06;;;;;;;5.03;2.90;;;20.80;99.90;;;;;;4970806;28;20030;-69
2023/08/15 05:07:32;;;;;;;4.25;3.25;;;20.90;99.90;;;;;;4978569;28;20112;-69
2023/08/15 05:09:58;;;;;;;3.95;3.42;;;20.90;99.90;;;;;;4974694;28;20064;-69
2023/08/15 05:12:24;;;;;;;3.30;3.00;;;20.90;99.90;;;;;;4980687;28;20029;-69
2023/08/15 05:14:50;;;;;;;3.90;3.47;;;21.00;99.90;;;;;;4978223;28;20042;-68
2023/08/15 05:17:16;;;;;;;4.18;3.60;;;21.00;99.90;;;;;;5001810;28;20040;-69
2023/08/15 05:19:42;;;;;;;4.20;2.92;;;21.00;99.90;;;;;;4998335;28;20033;-69
2023/08/15 05:22:07;;;;;;;5.93;3.80;;;21.00;99.90;;;;;;4978500;28;20089;-69
2023/08/15 05:24:33;;;;;;;5.13;3.42;;;21.00;99.90;;;;;;4978231;28;20030;-69
2023/08/15 05:26:59;;;;;;;4.90;3.22;;;21.10;99.90;;;;;;4971755;28;20025;-69
2023/08/15 05:29:26;;;;;;;4.20;3.47;;;21.10;99.90;;;;;;4970604;28;20034;-68
2023/08/15 05:31:52;;;;;;;7.57;3.28;;;21.20;99.90;;;;;;4998683;28;20038;-69
2023/08/15 05:34:18;;;;;;;4.18;2.92;;;21.20;99.90;;;;;;5002199;28;20120;-69
2023/08/15 05:36:44;;;;;;;4.95;3.20;;;21.20;99.90;;;;;;4995725;28;20057;-69
2023/08/15 05:39:10;;;;;;;4.03;2.85;;;21.30;99.90;;;;;;4996361;28;20035;-69
2023/08/15 05:41:37;;;;;;;5.20;3.00;;;21.20;99.90;;;;;;4978681;28;20030;-69
2023/08/15 05:44:03;;;;;;;7.85;3.50;;;21.30;99.90;;;;;;4963301;28;20069;-69
2023/08/15 05:46:28;;;;;;;3.78;3.00;;;21.30;99.90;;;;;;4995227;28;20041;-69
2023/08/15 05:48:54;;;;;;;4.30;3.05;;;21.30;99.90;;;;;;4987456;28;20030;-69
2023/08/15 05:51:20;;;;;;;4.40;3.55;;;21.40;99.90;;;;;;4996418;28;20829;-69
2023/08/15 05:53:46;;;;;;;3.60;3.00;;;21.40;99.90;;;;;;5003949;28;20045;-69
2023/08/15 05:56:12;;;;;;;5.20;3.17;;;21.50;99.90;;;;;;4992605;28;20034;-68
2023/08/15 05:58:37;;;;;;;4.50;3.10;;;21.60;99.90;;;;;;4982564;28;20031;-69
2023/08/15 06:01:04;;;;;;;7.50;3.90;;;21.60;99.90;;;;;;4995590;28;20391;-69
2023/08/15 06:03:29;;;;;;;3.35;3.03;;;21.60;99.90;;;;;;4978046;28;20038;-69
2023/08/15 06:05:56;;;;;;;4.13;3.03;;;21.60;99.90;;;;;;4970973;28;20039;-69
2023/08/15 06:08:22;;;;;;;5.32;3.30;;;21.70;99.90;;;;;;4993401;28;20033;-70
2023/08/15 06:10:48;;;;;;;6.97;3.25;;;21.70;99.90;;;;;;5005219;28;20061;-70
2023/08/15 06:13:14;;;;;;;3.00;2.70;;;21.70;99.90;;;;;;4992724;28;20034;-70
2023/08/15 06:15:39;;;;;;;4.70;3.10;;;21.80;99.90;;;;;;4993774;28;20874;-70
2023/08/15 06:18:05;;;;;;;3.53;2.95;;;21.80;99.90;;;;;;4995225;28;20129;-69
2023/08/15 06:20:31;;;;;;;4.90;2.78;;;21.90;99.90;;;;;;4989098;28;20065;-70
2023/08/15 06:22:57;;;;;;;3.00;2.65;;;22.10;99.90;;;;;;4995407;28;20034;-70
2023/08/15 06:25:23;;;;;;;4.10;2.72;;;22.20;99.90;;;;;;4995414;28;20038;-69
2023/08/15 06:27:49;;;;;;;2.65;2.45;;;22.20;99.90;;;;;;5003034;28;20048;-70
2023/08/15 06:30:14;;;;;;;9.13;2.92;;;22.30;99.90;;;;;;4985759;28;20042;-70
2023/08/15 06:32:40;;;;;;;3.13;2.50;;;22.20;99.90;;;;;;4970652;28;20065;-70
2023/08/15 06:35:06;;;;;;;3.30;2.22;;;22.20;99.90;;;;;;4998794;28;20029;-70
2023/08/15 06:37:32;;;;;;;5.50;2.35;;;22.30;99.90;;;;;;4977434;28;20037;-70
2023/08/15 06:39:58;;;;;;;4.07;2.75;;;22.30;99.90;;;;;;4981915;28;20458;-70
2023/08/15 06:42:24;;;;;;;2.83;2.17;;;22.40;99.90;;;;;;4992177;28;20044;-70
2023/08/15 06:44:50;;;;;;;5.05;2.85;;;22.40;99.90;;;;;;5003034;28;20151;-69
2023/08/15 06:47:16;;;;;;;2.88;2.45;;;22.40;99.90;;;;;;5000677;28;20637;-70
2023/08/15 06:49:42;;;;;;;4.57;2.53;;;22.50;99.90;;;;;;4997704;28;20084;-70
2023/08/15 06:52:08;;;;;;;2.78;2.58;;;22.60;99.90;;;;;;4992404;28;20554;-70
2023/08/15 06:54:34;;;;;;;2.65;2.28;;;22.60;99.90;;;;;;4998168;28;20763;-70
2023/08/15 06:56:59;;;;;;;3.25;2.40;;;22.70;99.90;;;;;;4997306;28;20426;-69
2023/08/15 06:59:25;;;;;;;6.00;2.30;;;22.80;99.90;;;;;;4988157;28;20556;-70
2023/08/15 07:01:53;;;;;;;4.25;2.45;;;22.80;99.90;;;;;;4975380;28;20450;-70
2023/08/15 07:04:19;;;;;;;3.92;2.45;;;22.90;99.90;;;;;;4990270;28;20046;-70
2023/08/15 07:06:45;;;;;;;4.93;2.60;;;22.90;99.90;;;;;;4995371;28;20129;-70
2023/08/15 07:09:11;;;;;;;8.00;2.30;;;23.10;99.90;;;;;;5000083;28;20140;-70
2023/08/15 07:11:37;;;;;;;2.22;2.00;;;23.20;99.90;;;;;;4996542;28;20058;-70
2023/08/15 07:14:03;;;;;;;3.25;2.70;;;23.30;99.90;;;;;;4994854;28;20068;-70
2023/08/15 07:16:29;;;;;;;2.45;2.25;;;23.40;99.90;;;;;;4996599;28;20035;-70
2023/08/15 07:18:55;;;;;;;4.07;2.10;;;23.70;99.90;;;;;;4992812;28;20037;-70
2023/08/15 07:21:20;;;;;;;4.80;2.33;;;23.90;99.90;;;;;;4997918;28;20092;-70
2023/08/15 07:23:46;;;;;;;3.45;2.35;;;24.00;99.90;;;;;;4995385;28;20192;-70
2023/08/15 07:26:13;;;;;;;5.13;2.33;;;24.00;99.90;;;;;;4998848;28;20045;-70
2023/08/15 07:28:39;;;;;;;2.88;2.22;;;24.00;99.90;;;;;;4975603;28;20182;-70
2023/08/15 07:31:05;;;;;;;2.53;2.22;;;24.00;99.90;;;;;;4997875;28;20116;-70
2023/08/15 07:33:31;;;;;;;2.35;2.15;;;24.00;99.90;;;;;;4997459;28;20099;-70
2023/08/15 07:35:57;;;;;;;3.00;2.35;;;24.00;99.90;;;;;;4986329;28;20035;-70
2023/08/15 07:38:23;;;;;;;7.50;2.47;;;24.10;99.90;;;;;;5000001;28;20726;-70
2023/08/15 07:40:49;;;;;;;3.08;2.42;;;24.20;99.90;;;;;;4995620;28;20577;-70
2023/08/15 07:43:15;;;;;;;3.97;2.67;;;24.20;99.90;;;;;;4990861;28;20037;-70
2023/08/15 07:45:41;;;;;;;4.55;2.47;;;24.20;99.90;;;;;;4997396;28;20033;-70
2023/08/15 07:48:06;;;;;;;2.50;2.10;;;24.20;99.90;;;;;;4986671;28;20167;-70
2023/08/15 07:50:32;;;;;;;2.67;2.03;;;24.20;99.90;;;;;;4983213;28;20532;-69
2023/08/15 07:52:58;;;;;;;4.50;2.17;;;24.30;99.90;;;;;;4996225;28;20041;-70
2023/08/15 07:55:25;;;;;;;4.10;2.28;;;24.40;99.90;;;;;;4989383;28;20038;-70
2023/08/15 07:57:51;;;;;;;5.30;2.20;;;24.70;99.90;;;;;;4987293;28;20038;-70
2023/08/15 08:00:18;;;;;;;2.55;2.35;;;24.70;99.90;;;;;;5001845;28;20397;-69
2023/08/15 08:02:44;;;;;;;3.60;2.20;;;24.80;99.90;;;;;;4989319;28;20514;-70
2023/08/15 08:05:13;;;;;;;4.85;2.40;;;24.80;99.90;;;;;;4990751;28;20449;-69
2023/08/15 08:07:41;;;;;;;3.60;2.30;;;24.80;99.90;;;;;;4985504;28;20069;-70
2023/08/15 08:10:07;;;;;;;2.80;2.17;;;24.80;99.90;;;;;;4974276;28;20029;-70
2023/08/15 08:12:33;;;;;;;9.15;2.47;;;24.80;99.90;;;;;;4992604;28;20038;-70
2023/08/15 08:14:59;;;;;;;2.65;1.83;;;24.90;99.90;;;;;;4992416;28;20713;-70
2023/08/15 08:17:26;;;;;;;5.65;2.50;;;24.80;99.90;;;;;;4994709;28;20065;-70
2023/08/15 08:19:52;;;;;;;2.88;2.13;;;24.90;99.90;;;;;;4976746;28;20034;-69
2023/08/15 08:22:19;;;;;;;4.57;2.42;;;25.00;99.90;;;;;;4991094;28;20062;-70
2023/08/15 08:24:44;;;;;;;3.33;2.70;;;25.00;99.90;;;;;;4994546;28;20073;-70
2023/08/15 08:27:10;;;;;;;3.13;2.83;;;25.00;99.90;;;;;;4993395;28;20053;-70
2023/08/15 08:29:36;;;;;;;3.47;2.35;;;25.20;99.90;;;;;;4988603;28;20510;-70
2023/08/15 08:32:02;;;;;;;4.88;2.45;;;25.20;99.90;;;;;;5004737;28;20045;-70
2023/08/15 08:34:28;;;;;;;3.92;2.25;;;25.30;99.90;;;;;;4972112;28;20141;-70
2023/08/15 08:36:53;;;;;;;3.17;2.90;;;25.30;99.90;;;;;;4995390;28;20027;-70
2023/08/15 08:39:19;;;;;;;3.83;2.85;;;25.40;99.90;;;;;;4985192;28;20487;-70
2023/08/15 08:41:45;;;;;;;2.67;2.17;;;25.50;99.90;;;;;;4998324;28;20061;-69
2023/08/15 08:44:12;;;;;;;3.28;2.33;;;25.70;99.90;;;;;;4990493;28;20038;-70
2023/08/15 08:46:39;;;;;;;2.80;2.60;;;25.70;99.90;;;;;;4988533;28;20045;-70
2023/08/15 08:49:06;;;;;;;3.53;2.47;;;25.70;99.90;;;;;;4999457;28;20069;-70
2023/08/15 08:51:32;;;;;;;2.90;2.53;;;25.70;99.90;;;;;;5006884;28;20511;-69
2023/08/15 08:53:59;;;;;;;6.13;2.95;;;25.70;99.90;;;;;;4999560;28;20046;-70
2023/08/15 08:56:27;;;;;;;5.82;2.55;;;25.80;99.90;;;;;;4999982;28;20053;-70
2023/08/15 08:59:05;;;;;;;6.15;2.90;;;25.90;99.90;;;;;;5010349;28;20030;-70
2023/08/15 09:01:31;;;;;;;7.70;2.50;;;26.10;99.90;;;;;;4996234;28;20116;-69
2023/08/15 09:03:58;;;;;;;5.03;2.63;;;26.20;99.90;;;;;;4998496;28;20034;-70
2023/08/15 09:06:27;;;;;;;4.57;2.83;;;26.20;99.90;;;;;;4999666;28;20100;-71
2023/08/15 09:08:58;;;;;;;3.92;2.80;;;26.30;99.90;;;;;;4998686;28;20041;-70
2023/08/15 09:11:35;;;;;;;3.78;3.22;;;26.40;99.90;;;;;;4994910;28;20042;-70
2023/08/15 09:14:05;;;;;;;4.00;3.00;;;26.50;99.90;;;;;;4996036;28;20552;-70
2023/08/15 09:16:32;;;;;;;3.53;2.65;;;26.60;99.90;;;;;;5002833;28;20033;-70
2023/08/15 09:19:02;;;;;;;3.10;2.80;;;26.70;99.90;;;;;;4999859;28;20061;-70
2023/08/15 09:21:28;;;;;;;3.20;2.90;;;26.90;99.90;;;;;;4992010;28;20034;-70
2023/08/15 09:23:56;;;;;;;3.25;2.88;;;27.00;99.90;;;;;;4998524;28;20450;-70
2023/08/15 09:26:23;;;;;;;2.70;2.47;;;27.10;99.90;;;;;;4982210;28;20117;-70
2023/08/15 09:28:50;;;;;;;3.45;2.83;;;27.20;99.90;;;;;;4995048;28;20091;-70
2023/08/15 09:31:15;;;;;;;4.53;3.70;;;27.30;99.90;;;;;;5005445;28;20617;-70
2023/08/15 09:33:41;;;;;;;3.90;3.50;;;27.50;99.90;;;;;;4999808;28;20122;-70
2023/08/15 09:36:09;;;;;;;4.22;3.80;;;27.50;99.90;;;;;;4999449;28;20030;-69
2023/08/15 09:38:38;;;;;;;6.90;3.75;;;27.40;99.90;;;;;;5007177;28;20486;-69
2023/08/15 09:41:05;;;;;;;4.50;4.10;;;27.50;99.90;;;;;;4995628;28;20041;-69
2023/08/15 09:43:30;;;;;;;4.10;3.50;;;27.40;99.90;;;;;;4979473;28;20448;-72
2023/08/15 09:46:01;;;;;;;7.72;3.95;;;27.40;99.90;;;;;;4986929;28;20046;-70
2023/08/15 09:48:30;;;;;;;3.55;3.25;;;27.30;99.90;;;;;;5005043;28;20060;-69
2023/08/15 09:50:56;;;;;;;8.10;4.20;;;27.20;99.90;;;;;;5000913;28;20688;-70
2023/08/15 09:53:23;;;;;;;4.85;4.13;;;27.10;99.90;;;;;;4998969;28;20103;-69
2023/08/15 09:55:50;;;;;;;5.57;3.53;;;27.10;99.90;;;;;;4987129;28;20034;-70
2023/08/15 09:58:19;;;;;;;3.72;3.40;;;27.00;99.90;;;;;;4995341;28;20702;-70
2023/08/15 10:00:50;;;;;;;10.73;4.03;;;27.00;99.90;;;;;;4990407;28;20113;-70
2023/08/15 10:03:24;;;;;;;3.85;3.47;;;26.90;99.90;;;;;;5002020;28;20057;-69
2023/08/15 10:05:56;;;;;;;4.35;3.30;;;26.80;99.90;;;;;;4996595;28;20045;-69
2023/08/15 10:08:23;;;;;;;5.53;4.05;;;26.70;99.90;;;;;;4987416;28;20453;-69
2023/08/15 10:10:51;;;;;;;4.50;4.00;;;26.80;99.90;;;;;;5000493;28;20077;-69
2023/08/15 10:13:22;;;;;;;5.47;3.60;;;26.90;99.90;;;;;;4995415;28;20064;-70
2023/08/15 10:15:49;;;;;;;4.28;3.75;;;26.90;99.90;;;;;;4995324;28;20798;-70
2023/08/15 10:18:14;;;;;;;4.47;3.90;;;27.00;99.90;;;;;;4985954;28;20033;-69
2023/08/15 10:20:40;;;;;;;4.88;4.25;;;27.00;99.90;;;;;;4985937;28;20038;-70
2023/08/15 10:23:10;;;;;;;5.60;4.22;;;27.00;99.90;;;;;;4993035;28;20836;-69
2023/08/15 10:25:38;;;;;;;4.40;4.00;;;27.00;99.90;;;;;;4998654;28;20047;-70
2023/08/15 10:28:10;;;;;;;4.22;3.83;;;27.10;99.90;;;;;;4985125;28;20442;-68
2023/08/15 10:30:42;;;;;;;5.88;4.40;;;27.30;99.90;;;;;;4995506;28;20521;-69
2023/08/15 10:33:15;;;;;;;6.85;4.15;;;27.50;99.90;;;;;;4974470;28;20046;-70
2023/08/15 10:35:49;;;;;;;5.55;4.35;;;27.50;99.90;;;;;;4990964;28;20026;-70
2023/08/15 10:38:16;;;;;;;7.60;4.22;;;27.60;99.90;;;;;;4991192;28;20064;-69
2023/08/15 10:40:44;;;;;;;5.05;4.53;;;27.70;99.90;;;;;;4992465;28;20468;-69
2023/08/15 10:43:16;;;;;;;5.75;3.97;;;27.70;99.90;;;;;;4974675;28;20122;-68
2023/08/15 10:45:50;;;;;;;5.88;3.83;;;27.70;99.90;;;;;;4984720;28;20423;-69
2023/08/15 10:48:49;;;;;;;7.82;4.18;;;27.80;99.90;;;;;;4988979;28;20041;-69
2023/08/15 10:51:26;;;;;;;6.47;3.85;;;27.90;99.90;;;;;;4988893;28;20144;-68
2023/08/15 10:53:54;;;;;;;5.90;4.35;;;28.00;99.90;;;;;;5001541;28;20695;-69
2023/08/15 10:56:31;;;;;;;5.40;4.35;;;28.00;99.90;;;;;;4998742;28;20121;-69
2023/08/15 10:58:58;;;;;;;7.35;5.38;;;28.00;99.90;;;;;;4977989;28;20129;-69
2023/08/15 11:01:26;;;;;;;6.55;4.25;;;28.00;99.90;;;;;;4989682;28;20042;-70
2023/08/15 11:03:54;;;;;;;6.47;4.22;;;28.00;99.90;;;;;;4989223;28;20035;-68
2023/08/15 11:06:21;;;;;;;4.60;4.20;;;28.20;99.90;;;;;;5001556;28;20042;-70
2023/08/15 11:08:49;;;;;;;4.78;3.92;;;28.20;99.90;;;;;;4988826;28;20089;-70
2023/08/15 11:11:16;;;;;;;4.72;4.25;;;28.20;99.90;;;;;;4984919;28;20030;-69
2023/08/15 11:13:47;;;;;;;4.88;3.90;;;28.30;99.90;;;;;;4994413;28;20065;-70
2023/08/15 11:16:20;;;;;;;4.95;4.50;;;28.30;99.90;;;;;;4997475;28;20030;-70
2023/08/15 11:18:48;;;;;;;4.43;4.00;;;28.40;99.90;;;;;;4988882;28;20042;-69
2023/08/15 11:21:16;;;;;;;5.95;4.25;;;28.40;99.90;;;;;;4994335;28;20038;-69
2023/08/15 11:23:42;;;;;;;4.95;3.90;;;28.50;99.90;;;;;;4990253;28;20037;-70
2023/08/15 11:26:10;;;;;;;5.43;4.18;;;28.50;99.90;;;;;;4989272;28;20034;-70
2023/08/15 11:28:37;;;;;;;4.22;3.70;;;28.60;99.90;;;;;;4998157;28;20116;-70
2023/08/15 11:31:10;;;;;;;6.03;4.43;;;28.80;99.90;;;;;;4983838;28;20085;-70
2023/08/15 11:33:37;;;;;;;4.40;4.00;;;28.90;99.90;;;;;;4989716;28;20177;-70
2023/08/15 11:36:06;;;;;;;4.32;3.88;;;28.90;99.90;;;;;;4989071;28;20759;-69
2023/08/15 11:38:33;;;;;;;4.55;4.07;;;28.90;99.90;;;;;;4997276;28;20034;-70
2023/08/15 11:41:01;;;;;;;4.97;3.92;;;28.80;99.90;;;;;;4986725;28;20034;-69
2023/08/15 11:43:30;;;;;;;6.72;4.13;;;28.80;99.90;;;;;;4982235;28;20069;-69
2023/08/15 11:46:00;;;;;;;4.95;4.00;;;28.90;99.90;;;;;;4997193;28;20096;-70
2023/08/15 11:48:26;;;;;;;4.78;4.28;;;28.90;99.90;;;;;;4992582;28;20515;-69
2023/08/15 11:50:52;;;;;;;4.53;4.13;;;29.00;99.90;;;;;;4998034;28;20124;-69
2023/08/15 11:53:19;;;;;;;5.15;4.35;;;29.00;99.90;;;;;;4987006;28;20034;-70
2023/08/15 11:55:46;;;;;;;4.97;3.72;;;29.00;99.90;;;;;;4991071;28;20026;-69
2023/08/15 11:58:32;;;;;;;6.03;3.90;;;29.00;99.90;;;;;;4985825;28;20031;-69
2023/08/15 12:01:02;;;;;;;4.43;4.03;;;29.20;99.90;;;;;;4993160;28;20040;-69
2023/08/15 12:03:32;;;;;;;6.82;4.18;;;29.30;99.90;;;;;;4984098;28;20054;-70
2023/08/15 12:06:00;;;;;;;4.90;3.90;;;29.20;99.90;;;;;;4995954;28;20037;-70
2023/08/15 12:08:26;;;;;;;4.72;4.15;;;29.20;99.90;;;;;;4996083;28;20198;-69
2023/08/15 12:10:55;;;;;;;7.28;4.28;;;29.30;99.90;;;;;;4994758;28;20030;-69
2023/08/15 12:13:38;;;;;;;5.32;4.57;;;29.30;99.90;;;;;;4990724;28;20034;-70
2023/08/15 12:16:05;;;;;;;6.68;3.80;;;29.40;99.90;;;;;;4982003;28;20022;-69
2023/08/15 12:18:31;;;;;;;6.95;3.67;;;29.50;99.40;;;;;;4989582;28;20046;-69
2023/08/15 12:20:58;;;;;;;5.63;4.00;;;29.60;98.60;;;;;;4976442;28;20038;-70
2023/08/15 12:23:25;;;;;;;6.72;3.53;;;29.70;98.10;;;;;;4995542;28;20038;-69
2023/08/15 12:25:51;;;;;;;10.80;4.00;;;29.70;97.50;;;;;;4983372;28;20116;-70
2023/08/15 12:28:20;;;;;;;5.68;3.70;;;29.70;98.10;;;;;;4993706;28;20598;-70
2023/08/15 12:30:47;;;;;;;4.97;3.65;;;29.80;97.60;;;;;;5000616;28;20117;-71
2023/08/15 12:33:13;;;;;;;4.05;3.65;;;29.80;97.60;;;;;;4994313;28;20033;-70
2023/08/15 12:35:39;;;;;;;4.05;3.65;;;29.90;97.60;;;;;;4996291;28;20030;-70
2023/08/15 12:38:05;;;;;;;5.60;4.30;;;29.90;97.90;;;;;;4993166;28;20058;-70
2023/08/15 12:40:31;;;;;;;8.02;3.92;;;29.90;97.00;;;;;;4991882;28;20117;-71
2023/08/15 12:43:00;;;;;;;5.00;3.70;;;30.00;96.50;;;;;;4991786;28;20045;-71
2023/08/15 12:45:26;;;;;;;4.75;4.22;;;30.00;96.60;;;;;;4992041;28;20030;-70
2023/08/15 12:47:52;;;;;;;4.90;3.75;;;30.00;97.60;;;;;;4991060;28;20040;-71